Time;durP1;ratioP1;P1;durP2;ratioP2;P2;SDS_P1;SDS_P2;PMS_P1;PMS_P2;Temp;Humidity;BMP_temperature;BMP_pressure;BME280_temperature;BME280_humidity;BME280_pressure;Samples;Min_cycle;Max_cycle;Signal;HPM_P1;HPM_P2
2021/04/14 00:01:12;;;;;;;50.80;27.48;;;;;;;8.82;87.84;99406.44;3555088;27;20509;-45
2021/04/14 00:02:53;;;;;;;;;;;;;;;8.82;87.72;99400.38;3552425;27;20046;-54
2021/04/14 00:04:36;;;;;;;52.20;26.33;;;;;;;8.81;87.84;99409.84;3554116;27;19930;-53
2021/04/14 00:06:17;;;;;;;44.78;24.23;;;;;;;8.80;87.79;99408.13;3551507;27;20057;-54
2021/04/14 00:07:59;;;;;;;48.17;26.33;;;;;;;8.78;87.96;99410.69;3551803;27;20058;-54
2021/04/14 00:09:40;;;;;;;41.65;24.20;;;;;;;8.78;87.57;99405.53;3554260;27;20054;-54
2021/04/14 00:11:22;;;;;;;42.35;23.77;;;;;;;8.78;87.58;99412.38;3551299;27;20043;-45
2021/04/14 00:13:04;;;;;;;42.58;23.15;;;;;;;8.77;87.55;99413.25;3553035;27;20500;-45
2021/04/14 00:14:46;;;;;;;37.15;23.58;;;;;;;8.77;86.86;99413.25;3551074;27;20459;-45
2021/04/14 00:16:29;;;;;;;39.72;23.52;;;;;;;8.78;87.09;99418.44;3554776;27;20057;-53
2021/04/14 00:18:11;;;;;;;45.17;23.60;;;;;;;8.80;87.25;99415.91;3552312;27;20411;-52
2021/04/14 00:19:53;;;;;;;39.05;24.08;;;;;;;8.80;87.23;99413.31;3551830;27;20039;-53
2021/04/14 00:21:34;;;;;;;39.50;22.52;;;;;;;8.82;87.35;99410.72;3553761;27;20046;-45
2021/04/14 00:23:18;;;;;;;37.53;22.98;;;;;;;8.82;87.19;99418.47;3551324;27;20071;-52
2021/04/14 00:24:59;;;;;;;39.22;22.73;;;;;;;8.83;87.60;99412.47;3554922;27;20057;-46
2021/04/14 00:26:40;;;;;;;36.15;20.73;;;;;;;8.81;86.80;99406.41;3553513;27;20053;-46
2021/04/14 00:28:24;;;;;;;33.90;19.45;;;;;;;8.81;86.88;99415.03;3553799;27;20530;-45
2021/04/14 00:30:08;;;;;;;35.38;21.77;;;;;;;8.82;86.78;99408.13;3552127;27;20047;-46
2021/04/14 00:31:49;;;;;;;31.85;20.70;;;;;;;8.82;86.87;99408.13;3551188;27;20058;-53
2021/04/14 00:33:31;;;;;;;37.40;21.73;;;;;;;8.83;86.86;99403.00;3554188;27;20463;-45
2021/04/14 00:35:15;;;;;;;37.97;21.40;;;;;;;8.83;86.85;99404.72;3551263;27;20050;-52
2021/04/14 00:36:57;;;;;;;40.28;22.88;;;;;;;8.84;87.03;99402.16;3554680;27;20054;-53
2021/04/14 00:38:39;;;;;;;36.42;23.60;;;;;;;8.84;87.19;99402.16;3558795;27;20107;-45
2021/04/14 00:40:24;;;;;;;41.30;22.20;;;;;;;8.85;87.40;99401.28;3565478;27;20530;-45
2021/04/14 00:42:06;;;;;;;33.08;20.27;;;;;;;8.87;87.16;99398.72;3552300;27;20100;-45
2021/04/14 00:43:47;;;;;;;32.15;19.30;;;;;;;8.86;87.04;99399.59;3549984;27;20054;-46
2021/04/14 00:45:29;;;;;;;39.40;22.27;;;;;;;8.87;86.82;99401.31;3554472;27;20085;-55
2021/04/14 00:47:10;;;;;;;38.75;20.95;;;;;;;8.88;86.92;99396.19;3551126;27;20353;-55
2021/04/14 00:48:52;;;;;;;36.22;20.83;;;;;;;8.88;86.77;99397.91;3554129;27;20053;-55
2021/04/14 00:50:34;;;;;;;39.25;21.15;;;;;;;8.88;86.67;99396.19;3551186;27;20042;-46
2021/04/14 00:52:16;;;;;;;35.33;19.50;;;;;;;8.90;86.99;99398.78;3552530;27;20054;-55
2021/04/14 00:53:58;;;;;;;32.70;20.33;;;;;;;8.89;86.90;99399.66;3553316;27;20142;-55
2021/04/14 00:55:40;;;;;;;31.85;19.65;;;;;;;8.89;86.58;99387.59;3551639;27;20046;-54
2021/04/14 00:57:21;;;;;;;30.38;20.10;;;;;;;8.88;86.53;99388.41;3553948;27;20043;-46
2021/04/14 00:59:03;;;;;;;32.28;19.67;;;;;;;8.89;86.37;99386.72;3550434;27;20103;-46
2021/04/14 01:00:47;;;;;;;33.42;20.10;;;;;;;8.89;86.26;99390.16;3554322;27;20140;-46
2021/04/14 01:02:28;;;;;;;30.25;18.20;;;;;;;8.88;86.31;99383.25;3550670;27;20519;-54
2021/04/14 01:04:10;;;;;;;33.58;19.13;;;;;;;8.89;86.00;99381.56;3552942;27;20106;-45
2021/04/14 01:05:53;;;;;;;29.50;17.45;;;;;;;8.90;85.81;99372.94;3553166;27;20062;-54
2021/04/14 01:07:34;;;;;;;35.78;19.00;;;;;;;8.90;85.67;99375.50;3550323;27;20043;-54
2021/04/14 01:09:16;;;;;;;30.90;18.65;;;;;;;8.89;85.62;99379.81;3554407;27;20042;-54
2021/04/14 01:10:57;;;;;;;27.20;17.67;;;;;;;8.90;85.49;99378.09;3552761;27;20043;-54
2021/04/14 01:12:38;;;;;;;29.40;18.38;;;;;;;8.90;85.30;99381.56;3554112;27;20059;-53
2021/04/14 01:14:20;;;;;;;29.65;19.02;;;;;;;8.90;85.58;99381.56;3551761;27;20046;-54
2021/04/14 01:16:01;;;;;;;34.65;18.38;;;;;;;8.92;85.36;99376.41;3552139;27;20479;-55
2021/04/14 01:17:43;;;;;;;28.02;17.52;;;;;;;8.92;85.18;99376.41;3552346;27;20050;-54
2021/04/14 01:19:24;;;;;;;26.13;16.45;;;;;;;8.92;84.95;99377.28;3550373;27;20050;-54
2021/04/14 01:21:08;;;;;;;30.40;18.35;;;;;;;8.92;85.06;99371.22;3553803;27;20057;-54
2021/04/14 01:22:50;;;;;;;31.00;17.40;;;;;;;8.93;84.89;99378.16;3552698;27;20043;-54
2021/04/14 01:24:32;;;;;;;32.10;19.10;;;;;;;8.94;84.85;99379.88;3554295;27;20047;-54
2021/04/14 01:26:13;;;;;;;30.08;17.00;;;;;;;8.94;85.22;99372.13;3549861;27;20055;-55
2021/04/14 01:27:55;;;;;;;22.20;15.98;;;;;;;8.93;84.96;99378.16;3551787;27;20046;-54
2021/04/14 01:29:36;;;;;;;27.40;15.80;;;;;;;8.93;84.81;99378.16;3552085;27;20046;-45
2021/04/14 01:31:32;;;;;;;28.70;15.88;;;;;;;8.93;85.11;99375.56;3552587;27;20580;-45
2021/04/14 01:33:14;;;;;;;26.17;16.80;;;;;;;8.93;84.79;99380.75;3540039;28;20078;-46
2021/04/14 01:34:56;;;;;;;24.48;16.85;;;;;;;8.91;85.04;99375.53;3548298;27;20085;-46
2021/04/14 01:36:37;;;;;;;23.92;15.95;;;;;;;8.92;84.83;99379.00;3553840;27;20051;-46
2021/04/14 01:38:20;;;;;;;30.50;17.38;;;;;;;8.92;85.01;99385.06;3550871;27;20129;-45
2021/04/14 01:40:02;;;;;;;25.00;16.40;;;;;;;8.91;84.76;99382.44;3552072;27;20050;-54
2021/04/14 01:41:45;;;;;;;26.63;14.60;;;;;;;8.90;84.70;99378.09;3552064;27;20467;-45
2021/04/14 01:43:27;;;;;;;24.50;14.90;;;;;;;8.90;84.71;99380.69;3550482;27;20054;-45
2021/04/14 01:45:11;;;;;;;24.08;15.30;;;;;;;8.90;84.85;99378.09;3554035;27;20074;-45
2021/04/14 01:46:53;;;;;;;22.30;15.98;;;;;;;8.90;84.79;99373.78;3550361;27;20042;-45
2021/04/14 01:48:36;;;;;;;25.20;15.25;;;;;;;8.90;84.98;99375.50;3552087;27;20521;-45
2021/04/14 01:50:18;;;;;;;21.05;14.73;;;;;;;8.89;84.74;99371.22;3551793;27;20051;-53
2021/04/14 01:52:00;;;;;;;23.70;15.95;;;;;;;8.88;84.80;99370.31;3550407;27;20091;-46
2021/04/14 01:53:42;;;;;;;24.55;15.80;;;;;;;8.87;84.40;99366.00;3552430;27;20050;-45
2021/04/14 01:55:24;;;;;;;26.42;16.45;;;;;;;8.88;85.00;99367.72;3550070;27;20453;-46
2021/04/14 01:57:07;;;;;;;24.58;15.15;;;;;;;8.87;85.09;99370.28;3553645;27;20050;-46
2021/04/14 01:58:49;;;;;;;26.98;16.55;;;;;;;8.87;84.63;99370.28;3552263;27;20178;-46
2021/04/14 02:00:33;;;;;;;25.60;16.60;;;;;;;8.87;84.53;99367.69;3551569;27;20050;-46
2021/04/14 02:02:15;;;;;;;26.85;17.52;;;;;;;8.86;84.86;99359.06;3551773;27;20051;-45
2021/04/14 02:03:57;;;;;;;30.20;17.80;;;;;;;8.85;84.99;99353.88;3550424;27;20046;-52
2021/04/14 02:05:38;;;;;;;26.60;16.80;;;;;;;8.85;85.25;99353.88;3553689;27;20074;-51
2021/04/14 02:07:20;;;;;;;27.63;16.92;;;;;;;8.83;85.52;99350.41;3550432;27;20097;-46
2021/04/14 02:09:03;;;;;;;24.92;16.02;;;;;;;8.82;85.36;99344.38;3553171;27;20200;-46
2021/04/14 02:10:46;;;;;;;26.95;16.42;;;;;;;8.82;85.22;99346.94;3549928;27;20038;-45
2021/04/14 02:12:27;;;;;;;22.65;15.98;;;;;;;8.81;85.39;99345.19;3551525;27;20133;-45
2021/04/14 02:14:09;;;;;;;27.27;17.20;;;;;;;8.81;84.99;99340.03;3550159;27;20055;-45
2021/04/14 02:15:52;;;;;;;26.42;16.25;;;;;;;8.80;85.23;99348.66;3549853;27;20049;-45
2021/04/14 02:17:33;;;;;;;23.67;15.75;;;;;;;8.80;85.48;99353.81;3538963;28;20047;-46
2021/04/14 02:19:15;;;;;;;25.77;16.75;;;;;;;8.78;85.26;99345.16;3546639;27;20049;-50
2021/04/14 02:20:56;;;;;;;31.23;18.65;;;;;;;8.77;85.49;99346.88;3554110;27;20074;-45
2021/04/14 02:22:38;;;;;;;28.38;17.65;;;;;;;8.76;85.53;99349.44;3549419;27;20400;-50
2021/04/14 02:24:20;;;;;;;22.85;16.02;;;;;;;8.75;85.57;99348.56;3551496;27;20103;-49
2021/04/14 02:26:04;;;;;;;27.45;17.15;;;;;;;8.74;85.46;99345.94;3551503;27;20530;-52
2021/04/14 02:27:46;;;;;;;28.02;17.60;;;;;;;8.72;85.39;99351.09;3549354;27;20454;-52
2021/04/14 02:29:27;;;;;;;28.33;17.45;;;;;;;8.70;85.34;99339.88;3553552;27;20515;-51
2021/04/14 02:31:09;;;;;;;31.27;17.48;;;;;;;8.68;85.32;99345.88;3549721;27;20051;-49
2021/04/14 02:32:51;;;;;;;26.40;16.90;;;;;;;8.64;85.20;99350.13;3552621;27;20047;-50
2021/04/14 02:34:33;;;;;;;24.63;16.17;;;;;;;8.62;85.11;99345.75;3550532;27;20046;-45
2021/04/14 02:36:14;;;;;;;25.60;15.77;;;;;;;8.58;85.21;99345.69;3549532;27;20119;-45
2021/04/14 02:37:55;;;;;;;27.58;16.60;;;;;;;8.56;85.43;99338.78;3552762;27;20070;-46
2021/04/14 02:39:37;;;;;;;24.45;16.70;;;;;;;8.53;84.78;99344.75;3549283;27;20055;-45
2021/04/14 02:41:19;;;;;;;27.23;15.98;;;;;;;8.51;84.48;99345.59;3552784;27;20510;-45
2021/04/14 02:43:01;;;;;;;22.45;13.95;;;;;;;8.47;84.26;99346.38;3549605;27;20046;-45
2021/04/14 02:44:42;;;;;;;22.48;13.88;;;;;;;8.44;84.34;99336.00;3551289;27;20058;-45
2021/04/14 02:46:23;;;;;;;26.90;15.88;;;;;;;8.42;84.75;99342.84;3551027;27;20587;-46
2021/04/14 02:48:07;;;;;;;25.85;17.02;;;;;;;8.38;85.38;99350.53;3549663;27;20042;-45
2021/04/14 02:49:48;;;;;;;29.05;17.75;;;;;;;8.35;85.62;99354.78;3552767;27;20062;-45
2021/04/14 02:51:30;;;;;;;31.15;18.58;;;;;;;8.31;85.63;99356.47;3549228;27;20081;-45
2021/04/14 02:53:11;;;;;;;29.70;16.85;;;;;;;8.29;85.73;99354.66;3552480;27;20103;-45
2021/04/14 02:54:53;;;;;;;27.52;17.08;;;;;;;8.26;85.39;99354.63;3549644;27;20042;-46
2021/04/14 02:56:35;;;;;;;23.42;15.82;;;;;;;8.24;85.12;99352.03;3549884;27;20528;-45
2021/04/14 02:58:16;;;;;;;24.98;15.55;;;;;;;8.18;84.64;99350.22;3551509;27;20463;-45
2021/04/14 02:59:58;;;;;;;23.48;15.10;;;;;;;8.19;84.90;99359.69;3549096;27;20470;-46
2021/04/14 03:01:39;;;;;;;27.17;14.98;;;;;;;8.17;84.61;99369.13;3552752;27;20175;-46
2021/04/14 03:03:21;;;;;;;22.65;14.70;;;;;;;8.15;84.73;99365.66;3549062;27;20069;-46
2021/04/14 03:05:02;;;;;;;24.45;14.48;;;;;;;8.14;85.00;99371.63;3552256;27;20396;-45
2021/04/14 03:06:44;;;;;;;24.88;15.32;;;;;;;8.13;84.97;99369.91;3548771;27;20084;-45
2021/04/14 03:08:25;;;;;;;20.70;14.85;;;;;;;8.13;84.83;99366.44;3549557;27;20074;-45
2021/04/14 03:10:10;;;;;;;20.05;14.02;;;;;;;8.12;84.87;99369.88;3552952;27;20062;-51
2021/04/14 03:11:51;;;;;;;23.30;14.95;;;;;;;8.12;84.82;99375.91;3549326;27;20096;-45
2021/04/14 03:13:32;;;;;;;21.30;14.90;;;;;;;8.11;84.83;99366.44;3551241;27;20470;-50
2021/04/14 03:15:15;;;;;;;23.23;14.73;;;;;;;8.10;84.61;99372.44;3549706;27;20530;-50
2021/04/14 03:16:56;;;;;;;23.63;14.90;;;;;;;8.10;84.67;99369.00;3552296;27;20687;-52
2021/04/14 03:18:38;;;;;;;23.23;14.27;;;;;;;8.09;84.72;99362.94;3550263;27;20053;-50
2021/04/14 03:20:20;;;;;;;18.73;13.32;;;;;;;8.08;84.60;99366.38;3550476;27;20047;-49
2021/04/14 03:22:01;;;;;;;21.42;13.52;;;;;;;8.06;84.71;99357.72;3550125;27;20503;-49
2021/04/14 03:23:43;;;;;;;24.27;13.57;;;;;;;8.05;83.94;99358.56;3550624;27;20043;-45
2021/04/14 03:25:28;;;;;;;18.75;12.40;;;;;;;8.05;83.89;99365.44;3552403;27;20076;-45
2021/04/14 03:27:09;;;;;;;18.65;13.00;;;;;;;8.04;84.17;99354.22;3548974;27;20581;-45
2021/04/14 03:28:51;;;;;;;25.85;13.55;;;;;;;8.06;84.48;99356.84;3551740;27;20396;-45
2021/04/14 03:30:34;;;;;;;21.15;13.38;;;;;;;8.05;84.04;99353.41;3550001;27;20057;-45
2021/04/14 03:32:15;;;;;;;26.33;14.02;;;;;;;8.06;84.07;99359.41;3550146;27;20054;-45
2021/04/14 03:33:56;;;;;;;21.23;13.63;;;;;;;8.06;84.54;99354.25;3551409;27;20427;-46
2021/04/14 03:35:38;;;;;;;20.98;12.20;;;;;;;8.06;84.07;99352.56;3549035;27;20058;-51
2021/04/14 03:37:19;;;;;;;24.30;14.73;;;;;;;8.06;83.84;99356.84;3552314;27;20081;-50
2021/04/14 03:39:01;;;;;;;20.67;13.07;;;;;;;8.06;83.06;99354.25;3549294;27;20049;-51
2021/04/14 03:40:43;;;;;;;26.60;13.38;;;;;;;8.07;82.76;99356.88;3552206;27;20060;-46
2021/04/14 03:42:24;;;;;;;19.60;13.18;;;;;;;8.08;82.47;99353.47;3552470;27;20535;-45
2021/04/14 03:44:06;;;;;;;20.58;11.88;;;;;;;8.08;82.32;99358.63;3549491;27;20063;-46
2021/04/14 03:45:50;;;;;;;20.13;12.82;;;;;;;8.09;82.32;99357.75;3552031;27;20051;-45
2021/04/14 03:47:31;;;;;;;;;;;;;;;8.11;82.46;99353.53;3548952;27;20050;-45
2021/04/14 03:49:12;;;;;;;17.83;11.60;;;;;;;8.12;82.26;99359.56;3552270;27;19930;-45
2021/04/14 03:50:54;;;;;;;20.23;12.57;;;;;;;8.13;82.12;99364.75;3549208;27;20046;-45
2021/04/14 03:52:35;;;;;;;23.38;14.38;;;;;;;8.13;82.47;99353.53;3551424;27;20414;-45
2021/04/14 03:54:17;;;;;;;20.13;12.27;;;;;;;8.15;82.61;99352.72;3549613;27;20043;-45
2021/04/14 03:56:01;;;;;;;19.92;12.25;;;;;;;8.16;82.57;99353.59;3549829;27;20536;-45
2021/04/14 03:57:42;;;;;;;20.60;12.70;;;;;;;8.17;82.37;99350.19;3551092;27;20046;-46
2021/04/14 03:59:23;;;;;;;18.58;12.23;;;;;;;8.17;82.64;99355.34;3548335;27;20564;-45
2021/04/14 04:01:08;;;;;;;15.55;10.93;;;;;;;8.16;82.90;99357.03;3552092;27;20047;-46
2021/04/14 04:02:49;;;;;;;18.83;12.43;;;;;;;8.15;82.60;99352.72;3548876;27;20568;-51
2021/04/14 04:04:30;;;;;;;19.05;11.90;;;;;;;8.17;82.49;99363.97;3551307;27;20077;-46
2021/04/14 04:06:12;;;;;;;19.83;11.82;;;;;;;8.17;82.43;99360.50;3550341;27;20073;-46
2021/04/14 04:07:53;;;;;;;18.85;12.50;;;;;;;8.16;82.18;99364.78;3551255;27;20074;-45
2021/04/14 04:09:34;;;;;;;18.60;12.18;;;;;;;8.16;81.69;99363.91;3551777;27;20551;-45
2021/04/14 04:11:18;;;;;;;17.55;12.27;;;;;;;8.15;81.41;99363.06;3548541;27;20419;-45
2021/04/14 04:12:59;;;;;;;;;;;;;;;8.15;81.33;99367.38;3551284;27;20047;-45
2021/04/14 04:14:46;;;;;;;19.98;11.90;;;;;;;8.14;81.13;99365.63;3548088;27;20024;-45
2021/04/14 04:16:27;;;;;;;17.80;11.50;;;;;;;8.15;81.20;99357.91;3550112;27;20108;-46
2021/04/14 04:18:09;;;;;;;18.30;11.60;;;;;;;8.15;80.34;99360.47;3552703;27;20054;-45
2021/04/14 04:19:50;;;;;;;18.13;11.90;;;;;;;8.16;80.79;99363.91;3552068;27;20133;-45
2021/04/14 04:21:32;;;;;;;19.25;11.43;;;;;;;8.16;80.62;99359.63;3553700;27;20047;-45
2021/04/14 04:23:13;;;;;;;18.10;11.55;;;;;;;8.17;80.66;99358.78;3553581;27;20058;-50
2021/04/14 04:24:55;;;;;;;20.00;11.90;;;;;;;8.17;79.83;99352.75;3555007;27;20053;-45
2021/04/14 04:26:37;;;;;;;18.38;11.05;;;;;;;8.17;79.17;99353.63;3550758;27;20400;-46
2021/04/14 04:28:19;;;;;;;22.65;12.05;;;;;;;8.17;79.27;99355.34;3553431;27;20275;-46
2021/04/14 04:30:01;;;;;;;14.93;10.27;;;;;;;8.19;79.14;99357.09;3553270;27;20043;-45
2021/04/14 04:31:42;;;;;;;21.25;12.73;;;;;;;8.18;78.81;99355.38;3550638;27;20046;-45
2021/04/14 04:33:24;;;;;;;19.58;11.77;;;;;;;8.19;77.88;99346.75;3554264;27;20082;-45
2021/04/14 04:35:07;;;;;;;17.83;10.57;;;;;;;8.19;77.37;99351.06;3550771;27;20510;-45
2021/04/14 04:36:49;;;;;;;17.25;10.93;;;;;;;8.20;77.93;99353.69;3553516;27;20541;-46
2021/04/14 04:38:34;;;;;;;18.55;11.27;;;;;;;8.23;78.76;99357.16;3552132;27;20093;-49
2021/04/14 04:40:16;;;;;;;16.75;11.70;;;;;;;8.21;76.90;99363.16;3552481;27;20105;-49
2021/04/14 04:41:58;;;;;;;18.02;10.30;;;;;;;8.24;77.09;99364.09;3552990;27;20081;-45
2021/04/14 04:43:41;;;;;;;19.05;10.52;;;;;;;8.23;75.92;99359.75;3550770;27;20407;-46
2021/04/14 04:45:25;;;;;;;17.73;11.60;;;;;;;8.25;75.77;99358.06;3554492;27;20046;-46
2021/04/14 04:47:07;;;;;;;17.38;11.07;;;;;;;8.23;74.69;99355.44;3550544;27;20400;-46
2021/04/14 04:48:48;;;;;;;18.23;11.43;;;;;;;8.24;74.59;99351.16;3552165;27;20538;-53
2021/04/14 04:50:32;;;;;;;20.48;11.48;;;;;;;8.23;73.35;99357.16;3554959;27;20047;-52
2021/04/14 04:52:13;;;;;;;17.48;11.10;;;;;;;8.24;73.96;99364.09;3552891;27;20042;-48
2021/04/14 04:53:55;;;;;;;20.42;11.02;;;;;;;8.25;75.18;99369.25;3553609;27;20081;-48
2021/04/14 04:55:37;;;;;;;16.73;9.73;;;;;;;8.26;74.93;99371.00;3550939;27;20066;-49
2021/04/14 04:57:21;;;;;;;16.27;10.75;;;;;;;8.26;74.79;99376.16;3554008;27;20046;-48
2021/04/14 04:59:02;;;;;;;23.02;12.82;;;;;;;8.26;72.81;99376.16;3550499;27;20499;-48
2021/04/14 05:00:45;;;;;;;18.95;11.68;;;;;;;8.26;72.78;99375.31;3552662;27;20050;-45
2021/04/14 05:02:27;;;;;;;18.58;10.68;;;;;;;8.27;73.22;99377.94;3552351;27;20400;-45
2021/04/14 05:04:10;;;;;;;20.42;11.48;;;;;;;8.29;74.27;99377.94;3550594;27;20054;-45
2021/04/14 05:05:52;;;;;;;19.38;11.52;;;;;;;8.28;72.22;99376.19;3539483;28;20047;-46
2021/04/14 05:07:33;;;;;;;24.08;11.75;;;;;;;8.27;72.66;99375.34;3550219;27;20053;-49
2021/04/14 05:09:15;;;;;;;16.20;11.10;;;;;;;8.28;73.09;99371.03;3553929;27;20415;-49
2021/04/14 05:10:57;;;;;;;20.90;11.52;;;;;;;8.29;74.02;99372.75;3549184;27;20043;-49
2021/04/14 05:12:38;;;;;;;18.02;11.55;;;;;;;8.30;73.40;99369.34;3551853;27;20049;-48
2021/04/14 05:14:20;;;;;;;20.20;11.82;;;;;;;8.30;73.21;99380.53;3550789;27;20047;-48
2021/04/14 05:16:01;;;;;;;15.65;10.80;;;;;;;8.33;72.93;99382.34;3552823;27;20103;-48
2021/04/14 05:17:42;;;;;;;16.35;10.32;;;;;;;8.34;72.67;99381.47;3554304;27;20531;-46
2021/04/14 05:19:24;;;;;;;20.48;10.77;;;;;;;8.34;72.77;99376.31;3552440;27;20133;-45
2021/04/14 05:21:06;;;;;;;15.90;10.50;;;;;;;8.36;73.36;99382.38;3553992;27;20054;-52
2021/04/14 05:22:47;;;;;;;17.92;10.90;;;;;;;8.37;73.00;99378.94;3552298;27;20090;-48
2021/04/14 05:24:29;;;;;;;17.10;11.32;;;;;;;8.38;71.36;99373.81;3552556;27;20589;-45
2021/04/14 05:26:10;;;;;;;17.42;10.60;;;;;;;8.38;71.54;99378.97;3554917;27;20115;-49
2021/04/14 05:27:55;;;;;;;16.95;10.60;;;;;;;8.39;70.71;99380.72;3550588;27;20050;-48
2021/04/14 05:29:37;;;;;;;18.52;11.15;;;;;;;8.40;70.53;99381.59;3539110;27;20062;-49
2021/04/14 05:31:19;;;;;;;20.08;10.70;;;;;;;8.42;69.14;99379.03;3548044;27;20039;-46
2021/04/14 05:33:00;;;;;;;19.58;12.13;;;;;;;8.43;69.50;99391.09;3554015;27;20468;-49
2021/04/14 05:34:42;;;;;;;17.83;10.52;;;;;;;8.42;69.46;99379.91;3551555;27;20548;-49
2021/04/14 05:36:23;;;;;;;16.60;10.48;;;;;;;8.43;71.22;99380.75;3552666;27;20049;-49
2021/04/14 05:38:05;;;;;;;15.73;10.73;;;;;;;8.43;70.35;99379.06;3566087;27;20046;-45
2021/04/14 05:39:47;;;;;;;19.77;10.45;;;;;;;8.44;70.39;99385.97;3554765;27;20445;-45
2021/04/14 05:41:28;;;;;;;16.05;10.60;;;;;;;8.45;70.87;99379.06;3553596;27;20099;-45
2021/04/14 05:43:19;;;;;;;16.15;10.82;;;;;;;8.47;71.47;99374.81;3550005;27;20167;-46
2021/04/14 05:45:00;;;;;;;22.38;11.70;;;;;;;8.47;71.05;99378.28;3551532;27;20050;-46
2021/04/14 05:46:42;;;;;;;16.00;11.30;;;;;;;8.49;70.80;99378.31;3551918;27;20057;-46
2021/04/14 05:48:29;;;;;;;16.63;10.23;;;;;;;8.50;71.24;99375.75;3552395;27;20089;-48
2021/04/14 05:50:15;;;;;;;19.88;10.70;;;;;;;8.51;71.25;99379.19;3539577;28;20077;-46
2021/04/14 05:51:57;;;;;;;18.23;10.95;;;;;;;8.52;71.09;99373.19;3547801;27;20541;-50
2021/04/14 05:53:40;;;;;;;16.50;10.27;;;;;;;8.53;71.87;99377.50;3553098;27;20139;-47
2021/04/14 05:55:22;;;;;;;17.52;11.70;;;;;;;8.54;71.78;99387.00;3550552;27;20057;-48
2021/04/14 05:57:04;;;;;;;15.85;10.48;;;;;;;8.53;71.34;99375.78;3550513;27;20696;-49
2021/04/14 05:58:47;;;;;;;22.25;12.20;;;;;;;8.54;70.97;99374.09;3553699;27;20053;-45
2021/04/14 06:00:28;;;;;;;23.10;11.07;;;;;;;8.55;71.93;99378.38;3549894;27;20715;-49
2021/04/14 06:02:10;;;;;;;18.20;11.70;;;;;;;8.54;72.00;99374.94;3553394;27;20050;-49
2021/04/14 06:03:52;;;;;;;18.70;11.30;;;;;;;8.55;71.89;99374.13;3550138;27;20039;-50
2021/04/14 06:05:33;;;;;;;18.02;10.95;;;;;;;8.56;72.27;99374.97;3550191;27;20042;-49
2021/04/14 06:07:15;;;;;;;19.00;11.77;;;;;;;8.57;72.33;99368.94;3553744;27;20473;-48
2021/04/14 06:08:56;;;;;;;18.95;11.57;;;;;;;8.57;72.30;99376.69;3551356;27;20418;-49
2021/04/14 06:10:37;;;;;;;20.58;13.23;;;;;;;8.58;72.85;99381.91;3553770;27;20042;-46
2021/04/14 06:12:19;;;;;;;19.27;12.98;;;;;;;8.58;71.76;99379.31;3552155;27;20053;-48
2021/04/14 06:14:02;;;;;;;18.55;12.30;;;;;;;8.57;71.77;99377.59;3551607;27;20043;-49
2021/04/14 06:15:44;;;;;;;22.15;12.35;;;;;;;8.60;72.03;99374.16;3550002;27;20046;-50
2021/04/14 06:17:25;;;;;;;20.33;11.95;;;;;;;8.60;72.30;99382.78;3551585;27;20042;-46
2021/04/14 06:19:06;;;;;;;16.67;11.95;;;;;;;8.58;72.02;99370.69;3553901;27;20050;-48
2021/04/14 06:20:48;;;;;;;15.80;11.00;;;;;;;8.59;72.41;99368.13;3551714;27;20046;-47
2021/04/14 06:22:29;;;;;;;20.70;12.45;;;;;;;8.59;71.92;99377.63;3553634;27;20055;-49
2021/04/14 06:24:11;;;;;;;15.60;10.75;;;;;;;8.60;72.79;99379.34;3551954;27;20058;-50
2021/04/14 06:26:01;;;;;;;20.00;11.80;;;;;;;8.61;72.10;99370.75;3552838;27;20046;-50
2021/04/14 06:27:48;;;;;;;17.33;11.30;;;;;;;8.62;72.07;99363.84;3551491;27;20051;-48
2021/04/14 06:29:30;;;;;;;20.52;11.90;;;;;;;8.63;72.47;99378.53;3549547;27;20076;-48
2021/04/14 06:31:12;;;;;;;20.35;11.80;;;;;;;8.63;71.69;99378.53;3552681;27;20089;-48
2021/04/14 06:32:53;;;;;;;21.48;11.15;;;;;;;8.64;71.32;99375.09;3553056;27;20050;-48
2021/04/14 06:34:35;;;;;;;17.08;12.18;;;;;;;8.67;71.98;99378.59;3553067;27;20057;-49
2021/04/14 06:36:16;;;;;;;18.00;12.20;;;;;;;8.69;71.37;99383.78;3549370;27;20788;-47
2021/04/14 06:37:58;;;;;;;20.45;11.85;;;;;;;8.69;72.21;99376.91;3552416;27;20054;-50
2021/04/14 06:39:39;;;;;;;19.23;11.23;;;;;;;8.71;71.78;99383.00;3550640;27;20515;-45
2021/04/14 06:41:43;;;;;;;14.68;10.40;;;;;;;8.74;71.62;99382.16;3548688;27;20054;-49
2021/04/14 06:43:37;;;;;;;19.73;10.93;;;;;;;8.78;71.76;99381.34;3538579;28;20078;-51
2021/04/14 06:45:23;;;;;;;18.77;10.90;;;;;;;8.81;71.11;99372.78;3549238;27;20330;-47
2021/04/14 06:47:11;;;;;;;20.63;11.75;;;;;;;8.84;71.19;99376.28;3551162;27;20058;-49
2021/04/14 06:48:59;;;;;;;15.60;10.43;;;;;;;8.87;71.61;99378.03;3551399;27;20503;-49
2021/04/14 06:50:46;;;;;;;16.98;10.65;;;;;;;8.91;71.31;99380.72;3551844;27;20058;-49
2021/04/14 06:52:34;;;;;;;16.13;10.40;;;;;;;8.93;70.98;99379.03;3552760;27;20146;-48
2021/04/14 06:54:25;;;;;;;19.27;11.50;;;;;;;8.96;70.17;99388.56;3548467;27;20047;-48
2021/04/14 06:56:14;;;;;;;16.67;11.55;;;;;;;8.97;69.20;99390.28;3549492;27;20055;-49
2021/04/14 06:58:00;;;;;;;20.20;11.77;;;;;;;8.96;68.97;99389.41;3552016;27;20042;-46
2021/04/14 06:59:47;;;;;;;20.33;11.95;;;;;;;8.95;67.97;99384.22;3549395;27;20047;-46
2021/04/14 07:01:34;;;;;;;16.15;11.10;;;;;;;8.96;68.15;99385.97;3552896;27;20050;-46
2021/04/14 07:03:20;;;;;;;21.27;11.43;;;;;;;8.95;67.54;99386.81;3550147;27;20050;-46
2021/04/14 07:05:07;;;;;;;20.08;10.40;;;;;;;8.94;67.59;99388.53;3549561;27;20058;-48
2021/04/14 07:06:49;;;;;;;15.75;10.65;;;;;;;8.96;67.87;99386.84;3552518;27;20054;-50
2021/04/14 07:08:38;;;;;;;18.05;11.43;;;;;;;8.98;67.71;99394.63;3548985;27;20046;-49
2021/04/14 07:10:23;;;;;;;18.13;10.75;;;;;;;9.01;67.93;99388.63;3552657;27;20058;-47
2021/04/14 07:12:07;;;;;;;15.55;10.13;;;;;;;9.05;68.03;99395.59;3549422;27;20051;-49
2021/04/14 07:13:50;;;;;;;18.85;11.30;;;;;;;9.08;68.14;99393.91;3548625;27;20046;-48
2021/04/14 07:15:33;;;;;;;14.65;9.80;;;;;;;9.13;68.15;99394.84;3551862;27;20046;-48
2021/04/14 07:17:21;;;;;;;18.27;11.20;;;;;;;9.19;67.26;99395.78;3551272;27;20104;-47
2021/04/14 07:19:13;;;;;;;21.95;12.48;;;;;;;9.22;66.69;99396.69;3552615;27;20062;-49
2021/04/14 07:21:00;;;;;;;18.20;10.60;;;;;;;9.27;66.80;99392.44;3549189;27;20082;-46
2021/04/14 07:23:02;;;;;;;25.02;12.02;;;;;;;9.38;68.05;99394.31;3550601;27;20107;-47
2021/04/14 07:24:49;;;;;;;17.70;10.10;;;;;;;9.46;67.12;99385.00;3538605;27;20469;-45
2021/04/14 07:26:37;;;;;;;21.05;11.85;;;;;;;9.58;66.58;99390.34;3551668;27;20422;-47
2021/04/14 07:28:58;;;;;;;19.63;11.98;;;;;;;9.69;66.17;99398.25;3550443;27;20051;-46
2021/04/14 07:30:46;;;;;;;22.88;13.50;;;;;;;9.75;64.60;99392.25;3490437;28;20399;-48
2021/04/14 07:32:35;;;;;;;16.77;11.38;;;;;;;9.81;64.30;99392.34;3550535;27;20454;-49
2021/04/14 07:34:29;;;;;;;17.02;12.07;;;;;;;9.87;63.42;99398.44;3550541;27;20095;-49
2021/04/14 07:36:16;;;;;;;20.02;12.15;;;;;;;9.92;63.63;99396.78;3551132;27;20043;-49
2021/04/14 07:38:06;;;;;;;20.35;12.52;;;;;;;9.95;62.98;99397.66;3549047;27;20044;-52
2021/04/14 07:39:58;;;;;;;22.33;13.77;;;;;;;9.97;62.81;99396.00;3551966;27;20397;-50
2021/04/14 07:41:58;;;;;;;20.77;11.65;;;;;;;10.03;63.29;99385.69;3550141;27;20051;-51
2021/04/14 07:43:52;;;;;;;19.02;12.13;;;;;;;10.12;63.84;99393.56;3548965;27;20051;-47
2021/04/14 07:45:37;;;;;;;25.17;13.53;;;;;;;10.19;62.66;99389.31;3552305;27;20078;-47
2021/04/14 07:47:20;;;;;;;22.08;11.75;;;;;;;10.26;63.80;99396.28;3549919;27;20774;-50
2021/04/14 07:49:08;;;;;;;17.05;11.20;;;;;;;10.36;63.65;99394.69;3550958;27;20072;-46
2021/04/14 07:50:54;;;;;;;19.70;12.55;;;;;;;10.47;63.05;99390.47;3552674;27;20055;-47
2021/04/14 07:52:35;;;;;;;21.30;12.15;;;;;;;10.60;63.04;99386.25;3550074;27;20424;-48
2021/04/14 07:54:18;;;;;;;18.15;11.43;;;;;;;10.73;64.06;99393.28;3555004;27;20043;-50
2021/04/14 07:56:02;;;;;;;18.95;12.93;;;;;;;10.87;62.65;99390.81;3551142;27;20484;-49
2021/04/14 07:57:43;;;;;;;17.75;10.35;;;;;;;11.01;62.39;99390.94;3554321;27;20047;-48
2021/04/14 07:59:27;;;;;;;17.83;12.65;;;;;;;11.13;61.28;99382.34;3553823;27;20043;-50
2021/04/14 08:01:14;;;;;;;17.50;12.13;;;;;;;11.26;61.47;99384.16;3542254;27;20047;-50